createdAt,value
2023-04-02T00:01:36.889Z,99.90
2023-04-02T00:04:09.050Z,99.90
2023-04-02T00:06:44.772Z,99.90
2023-04-02T00:09:14.728Z,99.90
2023-04-02T00:11:54.758Z,99.90
2023-04-02T00:14:34.312Z,99.90
2023-04-02T00:17:03.197Z,99.90
2023-04-02T00:19:46.638Z,99.90
2023-04-02T00:22:21.395Z,99.90
2023-04-02T00:24:52.708Z,99.90
2023-04-02T00:27:20.595Z,99.90
2023-04-02T00:29:55.802Z,99.90
2023-04-02T00:32:34.932Z,99.90
2023-04-02T00:35:02.327Z,99.90
2023-04-02T00:37:38.881Z,99.90
2023-04-02T00:40:29.378Z,99.90
2023-04-02T00:43:04.357Z,99.90
2023-04-02T00:45:35.750Z,99.90
2023-04-02T00:48:34.828Z,99.90
2023-04-02T00:51:11.794Z,99.90
2023-04-02T00:53:41.945Z,99.90
2023-04-02T00:56:25.952Z,99.90
2023-04-02T00:58:55.424Z,99.90
2023-04-02T01:01:26.379Z,99.90
2023-04-02T01:03:59.042Z,99.90
2023-04-02T01:06:31.151Z,99.90
2023-04-02T01:09:26.068Z,99.90
2023-04-02T01:12:02.197Z,99.90
2023-04-02T01:14:41.453Z,99.90
2023-04-02T01:17:35.785Z,99.90
2023-04-02T01:20:41.764Z,99.90
2023-04-02T01:23:25.629Z,99.90
2023-04-02T01:26:09.650Z,99.90
2023-04-02T01:29:03.798Z,99.90
2023-04-02T01:31:33.244Z,99.90
2023-04-02T01:34:02.375Z,99.90
2023-04-02T01:36:38.108Z,99.90
2023-04-02T01:39:43.277Z,99.90
2023-04-02T01:42:24.848Z,99.90
2023-04-02T01:45:02.344Z,99.90
2023-04-02T01:47:29.788Z,99.90
2023-04-02T01:50:10.115Z,99.90
2023-04-02T01:52:42.370Z,99.90
2023-04-02T01:55:15.526Z,99.90
2023-04-02T01:57:44.178Z,99.90
2023-04-02T02:00:15.790Z,99.90
2023-04-02T02:02:46.364Z,99.90
2023-04-02T02:05:15.710Z,99.90
2023-04-02T02:07:42.986Z,99.90
2023-04-02T02:10:28.207Z,99.90
2023-04-02T02:12:59.321Z,99.90
2023-04-02T02:15:27.213Z,99.90
2023-04-02T02:18:01.013Z,99.90
2023-04-02T02:20:29.147Z,99.90
2023-04-02T02:22:57.608Z,99.90
2023-04-02T02:25:31.553Z,99.90
2023-04-02T02:28:13.479Z,99.90
2023-04-02T02:30:52.365Z,99.90
2023-04-02T02:33:26.902Z,99.90
2023-04-02T02:36:07.033Z,99.90
2023-04-02T02:38:54.206Z,99.90
2023-04-02T02:41:37.605Z,99.90
2023-04-02T02:44:20.813Z,99.90
2023-04-02T02:46:55.120Z,99.90
2023-04-02T02:49:27.605Z,99.90
2023-04-02T02:52:09.589Z,99.90
2023-04-02T02:54:51.185Z,99.90
2023-04-02T02:57:27.657Z,99.90
2023-04-02T02:59:58.174Z,99.90
2023-04-02T03:02:26.746Z,99.90
2023-04-02T03:04:55.260Z,99.90
2023-04-02T03:07:26.534Z,99.90
2023-04-02T03:10:10.804Z,99.90
2023-04-02T03:13:02.352Z,99.90
2023-04-02T03:15:56.272Z,99.90
2023-04-02T03:18:31.778Z,99.90
2023-04-02T03:21:21.465Z,99.90
2023-04-02T03:23:59.638Z,99.90
2023-04-02T03:26:40.801Z,99.90
2023-04-02T03:29:21.085Z,99.90
2023-04-02T03:31:55.125Z,99.90
2023-04-02T03:34:33.593Z,99.90
2023-04-02T03:37:32.290Z,99.90
2023-04-02T03:40:07.000Z,99.90
2023-04-02T03:42:50.928Z,99.90
2023-04-02T03:45:24.985Z,99.90
2023-04-02T03:48:04.396Z,99.90
2023-04-02T03:50:51.124Z,99.90
2023-04-02T03:53:18.109Z,99.90
2023-04-02T03:55:45.100Z,99.90
2023-04-02T03:58:26.730Z,99.90
2023-04-02T04:01:06.502Z,99.90
2023-04-02T04:03:41.879Z,99.90
2023-04-02T04:06:24.991Z,99.90
2023-04-02T04:08:57.039Z,99.90
2023-04-02T04:11:32.561Z,99.90
2023-04-02T04:14:28.110Z,99.90
2023-04-02T04:17:04.538Z,99.90
2023-04-02T04:19:40.536Z,99.90
2023-04-02T04:22:30.449Z,99.90
2023-04-02T04:25:03.509Z,99.90
2023-04-02T04:27:44.064Z,99.90
2023-04-02T04:30:25.425Z,99.90
2023-04-02T04:33:02.033Z,99.90
2023-04-02T04:35:35.332Z,99.90
2023-04-02T04:38:14.457Z,99.90
2023-04-02T04:40:56.498Z,99.90
2023-04-02T04:43:38.746Z,99.90
2023-04-02T04:46:29.078Z,99.90
2023-04-02T04:49:18.155Z,99.90
2023-04-02T04:51:49.969Z,99.90
2023-04-02T04:54:17.475Z,99.90
2023-04-02T04:56:51.496Z,99.90
2023-04-02T04:59:39.973Z,99.90
2023-04-02T05:02:18.250Z,99.90
2023-04-02T05:04:50.398Z,99.90
2023-04-02T05:07:30.830Z,99.90
2023-04-02T05:10:17.232Z,99.90
2023-04-02T05:13:29.997Z,99.90
2023-04-02T05:16:23.779Z,99.90
2023-04-02T05:19:05.180Z,99.90
2023-04-02T05:21:44.879Z,99.90
2023-04-02T05:24:36.227Z,99.90
2023-04-02T05:27:12.630Z,99.90
2023-04-02T05:29:44.180Z,99.90
2023-04-02T05:32:19.517Z,99.90
2023-04-02T05:34:51.666Z,99.90
2023-04-02T05:37:21.530Z,99.90
2023-04-02T05:39:55.959Z,99.90
2023-04-02T05:42:25.530Z,99.90
2023-04-02T05:44:59.460Z,99.90
2023-04-02T05:47:31.408Z,99.90
2023-04-02T05:50:05.772Z,99.90
2023-04-02T05:52:37.828Z,99.90
2023-04-02T05:55:28.952Z,99.90
2023-04-02T05:58:25.421Z,99.90
2023-04-02T06:01:04.093Z,99.90
2023-04-02T06:03:49.705Z,99.90
2023-04-02T06:06:33.335Z,99.90
2023-04-02T06:09:15.723Z,99.90
2023-04-02T06:12:16.449Z,99.90
2023-04-02T06:14:43.676Z,99.90
2023-04-02T06:17:18.840Z,99.90
2023-04-02T06:19:47.748Z,99.90
2023-04-02T06:22:36.854Z,99.90
2023-04-02T06:25:41.538Z,99.90
2023-04-02T06:28:17.264Z,99.90
2023-04-02T06:30:45.078Z,99.90
2023-04-02T06:33:13.078Z,99.90
2023-04-02T06:35:42.948Z,99.90
2023-04-02T06:38:20.661Z,99.90
2023-04-02T06:40:54.926Z,99.90
2023-04-02T06:43:46.077Z,99.90
2023-04-02T06:46:27.280Z,99.90
2023-04-02T06:49:01.895Z,99.90
2023-04-02T06:51:30.949Z,99.90
2023-04-02T06:53:57.908Z,99.90
2023-04-02T06:56:42.195Z,99.90
2023-04-02T06:59:09.819Z,99.90
2023-04-02T07:01:51.407Z,99.90
2023-04-02T07:04:20.096Z,99.90
2023-04-02T07:06:47.117Z,99.90
2023-04-02T07:09:14.062Z,99.90
2023-04-02T07:11:41.258Z,99.90
2023-04-02T07:14:13.315Z,99.90
2023-04-02T07:16:41.988Z,99.90
2023-04-02T07:19:18.693Z,99.90
2023-04-02T07:21:46.024Z,99.90
2023-04-02T07:24:13.105Z,99.90
2023-04-02T07:26:40.306Z,99.90
2023-04-02T07:29:15.209Z,99.90
2023-04-02T07:31:42.596Z,99.90
2023-04-02T07:34:10.329Z,99.90
2023-04-02T07:36:37.395Z,99.90
2023-04-02T07:39:04.691Z,99.90
2023-04-02T07:41:31.688Z,99.90
2023-04-02T07:43:58.602Z,99.90
2023-04-02T07:46:26.000Z,99.90
2023-04-02T07:48:53.094Z,99.90
2023-04-02T07:51:23.319Z,99.90
2023-04-02T07:53:54.923Z,99.90
2023-04-02T07:56:23.528Z,99.90
2023-04-02T07:58:50.568Z,99.90
2023-04-02T08:01:20.961Z,99.90
2023-04-02T08:03:48.244Z,99.90
2023-04-02T08:06:16.145Z,99.90
2023-04-02T08:08:43.293Z,99.90
2023-04-02T08:11:11.125Z,99.90
2023-04-02T08:13:38.564Z,99.90
2023-04-02T08:16:06.906Z,99.90
2023-04-02T08:18:34.297Z,99.90
2023-04-02T08:21:02.012Z,99.90
2023-04-02T08:23:29.105Z,99.90
2023-04-02T08:25:56.069Z,99.90
2023-04-02T08:28:23.407Z,99.90
2023-04-02T08:30:51.376Z,99.90
2023-04-02T08:33:19.706Z,99.90
2023-04-02T08:35:47.977Z,99.90
2023-04-02T08:38:17.642Z,99.90
2023-04-02T08:40:47.791Z,99.90
2023-04-02T08:43:40.946Z,99.90
2023-04-02T08:46:29.523Z,99.90
2023-04-02T08:49:00.693Z,99.90
2023-04-02T08:51:31.932Z,99.90
2023-04-02T08:54:08.845Z,99.90
2023-04-02T08:57:15.709Z,99.90
2023-04-02T08:59:44.458Z,99.90
2023-04-02T09:02:35.823Z,99.90
2023-04-02T09:05:07.667Z,99.90
2023-04-02T09:07:35.078Z,99.90
2023-04-02T09:10:02.343Z,99.90
2023-04-02T09:12:32.592Z,99.90
2023-04-02T09:15:14.856Z,99.90
2023-04-02T09:17:52.989Z,99.90
2023-04-02T09:20:26.312Z,99.90
2023-04-02T09:22:54.651Z,99.90
2023-04-02T09:25:26.951Z,99.90
2023-04-02T09:27:56.185Z,99.90
2023-04-02T09:30:55.525Z,99.90
2023-04-02T09:33:41.448Z,99.90
2023-04-02T09:36:34.788Z,99.90
2023-04-02T09:39:15.742Z,99.90
2023-04-02T09:41:43.788Z,99.90
2023-04-02T09:44:21.352Z,99.90
2023-04-02T09:46:53.925Z,99.90
2023-04-02T09:49:29.792Z,99.90
2023-04-02T09:52:29.203Z,99.90
2023-04-02T09:55:21.973Z,99.90
2023-04-02T09:57:50.677Z,99.90
2023-04-02T10:00:32.182Z,99.90
2023-04-02T10:03:35.860Z,99.90
2023-04-02T10:06:13.054Z,99.90
2023-04-02T10:08:43.173Z,99.90
2023-04-02T10:11:22.529Z,99.90
2023-04-02T10:13:59.194Z,99.90
2023-04-02T10:16:51.452Z,99.90
2023-04-02T10:19:41.585Z,99.90
2023-04-02T10:22:22.974Z,99.90
2023-04-02T10:24:51.491Z,99.90
2023-04-02T10:27:25.712Z,99.90
2023-04-02T10:30:22.351Z,99.90
2023-04-02T10:33:01.330Z,99.90
2023-04-02T10:35:38.036Z,99.90
2023-04-02T10:38:39.635Z,99.90
2023-04-02T10:41:44.090Z,99.90
2023-04-02T10:44:54.684Z,99.90
2023-04-02T10:47:45.300Z,99.90
2023-04-02T10:50:31.244Z,99.90
2023-04-02T10:53:17.494Z,99.90
2023-04-02T10:55:49.778Z,99.90
2023-04-02T10:58:30.135Z,99.90
2023-04-02T11:01:08.257Z,99.90
2023-04-02T11:04:37.449Z,99.90
2023-04-02T11:07:14.559Z,99.90
2023-04-02T11:09:47.421Z,99.90
2023-04-02T11:12:21.609Z,99.90
2023-04-02T11:14:51.983Z,99.90
2023-04-02T11:17:20.396Z,99.90
2023-04-02T11:19:49.076Z,99.90
2023-04-02T11:22:25.002Z,99.90
2023-04-02T11:24:57.960Z,99.90
2023-04-02T11:27:28.554Z,99.90
2023-04-02T11:30:06.811Z,99.90
2023-04-02T11:32:36.121Z,99.90
2023-04-02T11:35:33.614Z,99.90
2023-04-02T11:38:24.615Z,99.90
2023-04-02T11:40:58.158Z,99.90
2023-04-02T11:43:35.746Z,99.90
2023-04-02T11:46:04.982Z,99.90
2023-04-02T11:48:36.408Z,99.90
2023-04-02T11:51:22.892Z,99.90
2023-04-02T11:53:54.209Z,99.90
2023-04-02T11:56:52.512Z,99.90
2023-04-02T11:59:50.855Z,99.90
2023-04-02T12:02:43.963Z,99.90
2023-04-02T12:05:30.162Z,99.90
2023-04-02T12:08:12.502Z,99.90
2023-04-02T12:11:02.432Z,99.60
2023-04-02T12:13:41.507Z,99.90
2023-04-02T12:16:13.180Z,99.80
2023-04-02T12:18:54.051Z,97.90
2023-04-02T12:21:25.769Z,98.00
2023-04-02T12:23:56.013Z,99.10
2023-04-02T12:26:38.038Z,96.60
2023-04-02T12:29:26.233Z,96.60
2023-04-02T12:31:59.200Z,98.80
2023-04-02T12:34:28.853Z,96.50
2023-04-02T12:37:00.163Z,97.90
2023-04-02T12:39:28.473Z,97.70
2023-04-02T12:41:58.670Z,95.70
2023-04-02T12:44:28.567Z,95.90
2023-04-02T12:46:56.432Z,96.10
2023-04-02T12:49:34.754Z,96.60
2023-04-02T12:52:16.848Z,95.80
2023-04-02T12:54:54.084Z,93.90
2023-04-02T12:57:28.965Z,95.60
2023-04-02T13:00:21.908Z,94.70
2023-04-02T13:02:50.908Z,94.10
2023-04-02T13:05:35.347Z,94.00
2023-04-02T13:08:03.778Z,94.20
2023-04-02T13:10:30.761Z,93.50
2023-04-02T13:13:03.150Z,92.50
2023-04-02T13:15:32.503Z,93.10
2023-04-02T13:18:14.547Z,92.60
2023-04-02T13:20:43.960Z,91.10
2023-04-02T13:23:29.178Z,92.00
2023-04-02T13:26:11.445Z,91.70
2023-04-02T13:28:39.018Z,93.20
2023-04-02T13:31:06.502Z,93.20
2023-04-02T13:33:33.460Z,92.80
2023-04-02T13:36:00.581Z,92.70
2023-04-02T13:38:27.637Z,92.40
2023-04-02T13:40:54.549Z,92.00
2023-04-02T13:43:21.619Z,90.80
2023-04-02T13:45:54.422Z,91.60
2023-04-02T13:48:26.139Z,91.40
2023-04-02T13:50:53.430Z,91.50
2023-04-02T13:53:33.161Z,92.00
2023-04-02T13:56:00.819Z,91.00
2023-04-02T13:58:27.838Z,92.80
2023-04-02T14:00:55.335Z,92.60
2023-04-02T14:03:22.988Z,93.00
2023-04-02T14:06:26.845Z,91.90
2023-04-02T14:09:02.874Z,91.10
2023-04-02T14:11:32.763Z,90.50
2023-04-02T14:14:06.272Z,90.00
2023-04-02T14:17:37.876Z,88.30
2023-04-02T14:20:27.735Z,86.60
2023-04-02T14:23:06.579Z,90.00
2023-04-02T14:26:05.538Z,90.10
2023-04-02T14:29:05.474Z,90.10
2023-04-02T14:31:47.392Z,90.40
2023-04-02T14:34:22.031Z,91.40
2023-04-02T14:37:00.732Z,90.90
2023-04-02T14:40:06.041Z,90.70
2023-04-02T14:42:38.871Z,90.70
2023-04-02T14:45:13.754Z,90.50
2023-04-02T14:47:50.062Z,90.70
2023-04-02T14:50:29.631Z,91.10
2023-04-02T14:53:07.592Z,90.20
2023-04-02T14:55:43.601Z,91.30
2023-04-02T14:58:26.596Z,90.40
2023-04-02T15:01:27.672Z,90.00
2023-04-02T15:04:13.640Z,92.40
2023-04-02T15:06:47.376Z,91.60
2023-04-02T15:09:25.429Z,91.10
2023-04-02T15:11:57.282Z,89.80
2023-04-02T15:14:31.588Z,91.10
2023-04-02T15:16:58.513Z,91.10
2023-04-02T15:19:25.699Z,92.10
2023-04-02T15:22:18.503Z,92.20
2023-04-02T15:25:26.374Z,92.00
2023-04-02T15:28:26.614Z,92.40
2023-04-02T15:30:59.756Z,91.90
2023-04-02T15:33:44.971Z,92.90
2023-04-02T15:36:29.655Z,91.70
2023-04-02T15:39:17.950Z,92.80
2023-04-02T15:42:19.401Z,91.90
2023-04-02T15:45:08.679Z,92.40
2023-04-02T15:47:53.441Z,92.40
2023-04-02T15:50:49.826Z,92.60
2023-04-02T15:53:31.334Z,92.30
2023-04-02T15:56:23.006Z,92.20
2023-04-02T15:59:11.592Z,91.80
2023-04-02T16:02:20.320Z,91.80
2023-04-02T16:04:47.489Z,92.30
2023-04-02T16:07:49.550Z,92.60
2023-04-02T16:10:40.095Z,92.40
2023-04-02T16:13:29.530Z,93.10
2023-04-02T16:16:02.617Z,92.40
2023-04-02T16:19:00.773Z,93.10
2023-04-02T16:21:38.968Z,93.10
2023-04-02T16:24:13.155Z,93.50
2023-04-02T16:27:03.821Z,93.80
2023-04-02T16:29:51.568Z,94.00
2023-04-02T16:32:42.259Z,94.00
2023-04-02T16:38:30.732Z,94.40
2023-04-02T16:41:15.755Z,94.20
2023-04-02T16:44:34.043Z,94.60
2023-04-02T16:47:21.956Z,95.10
2023-04-02T16:49:57.488Z,95.40
2023-04-02T16:52:49.175Z,96.00
2023-04-02T16:55:38.647Z,95.80
2023-04-02T16:58:23.018Z,96.00
2023-04-02T17:01:21.728Z,96.60
2023-04-02T17:04:02.115Z,96.90
2023-04-02T17:06:29.090Z,97.00
2023-04-02T17:09:15.861Z,97.20
2023-04-02T17:12:19.541Z,97.80
2023-04-02T17:15:02.159Z,98.50
2023-04-02T17:17:29.167Z,98.90
2023-04-02T17:20:01.427Z,99.80
2023-04-02T17:22:31.560Z,99.90
2023-04-02T17:25:03.074Z,99.90
2023-04-02T17:27:36.515Z,99.90
2023-04-02T17:30:17.335Z,99.90
2023-04-02T17:32:44.659Z,99.90
2023-04-02T17:35:37.410Z,99.90
2023-04-02T17:38:21.217Z,99.90
2023-04-02T17:41:18.200Z,99.90
2023-04-02T17:44:13.004Z,99.90
2023-04-02T17:47:07.875Z,99.90
2023-04-02T17:50:09.170Z,99.90
2023-04-02T17:52:53.323Z,99.90
2023-04-02T17:55:54.212Z,99.90
2023-04-02T17:58:48.556Z,99.90
2023-04-02T18:01:30.423Z,99.90
2023-04-02T18:04:20.924Z,99.90
2023-04-02T18:07:07.404Z,99.90
2023-04-02T18:09:52.853Z,99.90
2023-04-02T18:12:28.573Z,99.90
2023-04-02T18:15:11.820Z,99.90
2023-04-02T18:18:01.935Z,99.90
2023-04-02T18:20:48.517Z,99.90
2023-04-02T18:23:44.884Z,99.90
2023-04-02T18:26:38.265Z,99.90
2023-04-02T18:29:31.179Z,99.90
2023-04-02T18:32:36.259Z,99.90
2023-04-02T18:35:14.413Z,99.90
2023-04-02T18:38:01.851Z,99.90
2023-04-02T18:40:39.110Z,99.90
2023-04-02T18:43:32.389Z,99.90
2023-04-02T18:46:06.467Z,99.90
2023-04-02T18:48:48.609Z,99.90
2023-04-02T18:51:22.135Z,99.90
2023-04-02T18:54:18.012Z,99.90
2023-04-02T18:56:45.655Z,99.90
2023-04-02T18:59:28.584Z,99.90
2023-04-02T19:01:57.575Z,99.90
2023-04-02T19:04:31.121Z,99.90
2023-04-02T19:07:14.203Z,99.90
2023-04-02T19:09:44.308Z,99.90
2023-04-02T19:12:23.617Z,99.90
2023-04-02T19:14:52.514Z,99.90
2023-04-02T19:17:28.672Z,99.90
2023-04-02T19:20:15.855Z,99.90
2023-04-02T19:23:13.092Z,99.90
2023-04-02T19:26:15.578Z,99.90
2023-04-02T19:29:13.614Z,99.90
2023-04-02T19:31:53.234Z,99.90
2023-04-02T19:34:46.704Z,99.90
2023-04-02T19:37:39.492Z,99.90
2023-04-02T19:40:51.658Z,99.90
2023-04-02T19:43:18.643Z,99.90
2023-04-02T19:45:49.511Z,99.90
2023-04-02T19:48:22.223Z,99.90
2023-04-02T19:50:50.080Z,99.90
2023-04-02T19:53:17.949Z,99.90
2023-04-02T19:55:46.150Z,99.90
2023-04-02T19:58:28.094Z,99.90
2023-04-02T20:00:55.714Z,99.90
2023-04-02T20:03:22.924Z,99.90
2023-04-02T20:05:50.444Z,99.90
2023-04-02T20:08:17.631Z,99.90
2023-04-02T20:10:45.740Z,99.90
2023-04-02T20:13:12.893Z,99.90
2023-04-02T20:15:41.115Z,99.90
2023-04-02T20:18:09.419Z,99.90
2023-04-02T20:20:37.831Z,99.90
2023-04-02T20:23:05.261Z,99.90
2023-04-02T20:25:32.217Z,99.90
2023-04-02T20:28:00.939Z,99.90
2023-04-02T20:30:27.944Z,99.90
2023-04-02T20:32:55.749Z,99.90
2023-04-02T20:35:22.875Z,99.90
2023-04-02T20:37:49.832Z,99.90
2023-04-02T20:40:16.944Z,99.90
2023-04-02T20:42:44.098Z,99.90
2023-04-02T20:45:11.251Z,99.90
2023-04-02T20:47:38.463Z,99.90
2023-04-02T20:50:06.171Z,99.90
2023-04-02T20:52:33.633Z,99.90
2023-04-02T20:55:01.613Z,99.90
2023-04-02T20:57:31.715Z,99.90
2023-04-02T20:59:59.069Z,99.90
2023-04-02T21:02:26.207Z,99.90
2023-04-02T21:04:53.209Z,99.90
2023-04-02T21:07:20.407Z,99.90
2023-04-02T21:09:47.346Z,99.90
2023-04-02T21:12:14.368Z,99.90
2023-04-02T21:14:41.263Z,99.90
2023-04-02T21:17:08.358Z,99.90
2023-04-02T21:19:35.993Z,99.90
2023-04-02T21:22:03.476Z,99.90
2023-04-02T21:24:30.692Z,99.90
2023-04-02T21:26:57.644Z,99.90
2023-04-02T21:29:24.572Z,99.90
2023-04-02T21:31:52.452Z,99.90
2023-04-02T21:34:19.546Z,99.90
2023-04-02T21:36:48.329Z,99.90
2023-04-02T21:39:21.510Z,99.90
2023-04-02T21:41:50.737Z,99.90
2023-04-02T21:44:19.751Z,99.90
2023-04-02T21:46:47.415Z,99.90
2023-04-02T21:49:16.815Z,99.90
2023-04-02T21:51:45.727Z,99.90
2023-04-02T21:54:13.404Z,99.90
2023-04-02T21:56:42.927Z,99.90
2023-04-02T21:59:12.126Z,99.90
2023-04-02T22:01:42.274Z,99.90
2023-04-02T22:04:11.766Z,99.90
2023-04-02T22:06:41.518Z,99.90
2023-04-02T22:09:15.144Z,99.90
2023-04-02T22:11:47.876Z,99.90
2023-04-02T22:14:15.172Z,99.90
2023-04-02T22:16:43.150Z,99.90
2023-04-02T22:19:12.362Z,99.90
2023-04-02T22:21:39.807Z,99.90
2023-04-02T22:24:09.339Z,99.90
2023-04-02T22:26:36.579Z,99.90
2023-04-02T22:29:04.615Z,99.90
2023-04-02T22:31:35.775Z,99.90
2023-04-02T22:34:04.395Z,99.90
2023-04-02T22:36:31.781Z,99.90
2023-04-02T22:39:00.511Z,99.90
2023-04-02T22:41:32.020Z,99.90
2023-04-02T22:44:00.883Z,99.90
2023-04-02T22:46:29.266Z,99.90
2023-04-02T22:48:56.785Z,99.90
2023-04-02T22:51:24.990Z,99.90
2023-04-02T22:53:54.114Z,99.90
2023-04-02T22:56:24.070Z,99.90
2023-04-02T22:58:51.139Z,99.90
2023-04-02T23:01:30.820Z,99.90
2023-04-02T23:03:58.060Z,99.90
2023-04-02T23:06:25.489Z,99.90
2023-04-02T23:08:52.640Z,99.90
2023-04-02T23:11:22.277Z,99.90
2023-04-02T23:13:51.436Z,99.90
2023-04-02T23:16:19.439Z,99.90
2023-04-02T23:18:48.128Z,99.90
2023-04-02T23:21:16.378Z,99.90
2023-04-02T23:23:43.477Z,99.90
2023-04-02T23:26:16.537Z,99.90
2023-04-02T23:28:44.411Z,99.90
2023-04-02T23:31:14.712Z,99.90
2023-04-02T23:33:42.057Z,99.90
2023-04-02T23:36:34.629Z,99.90
2023-04-02T23:39:22.659Z,99.90
2023-04-02T23:41:49.662Z,99.90
2023-04-02T23:44:16.754Z,99.90
2023-04-02T23:46:43.713Z,99.90
2023-04-02T23:49:12.970Z,99.90
2023-04-02T23:51:40.790Z,99.90
2023-04-02T23:54:07.817Z,99.90
2023-04-02T23:56:34.796Z,99.90
2023-04-02T23:59:01.867Z,99.90
